createdAt,value
2023-02-14T00:01:15.638Z,23.70
2023-02-14T00:02:49.065Z,23.87
2023-02-14T00:04:22.525Z,22.53
2023-02-14T00:05:55.929Z,21.53
2023-02-14T00:07:29.345Z,21.43
2023-02-14T00:09:03.158Z,23.90
2023-02-14T00:10:37.867Z,22.07
2023-02-14T00:12:11.279Z,23.07
2023-02-14T00:14:05.013Z,21.97
2023-02-14T00:15:37.388Z,22.00
2023-02-14T00:17:09.762Z,23.03
2023-02-14T00:19:00.974Z,21.93
2023-02-14T00:20:34.365Z,22.30
2023-02-14T00:22:06.801Z,21.77
2023-02-14T00:23:40.175Z,21.47
2023-02-14T00:25:13.617Z,22.87
2023-02-14T00:26:48.601Z,21.17
2023-02-14T00:28:22.042Z,23.90
2023-02-14T00:29:58.222Z,25.27
2023-02-14T00:31:30.785Z,21.97
2023-02-14T00:33:04.248Z,23.23
2023-02-14T00:34:37.631Z,22.67
2023-02-14T00:36:11.920Z,22.67
2023-02-14T00:37:45.412Z,22.60
2023-02-14T00:39:19.115Z,21.73
2023-02-14T00:40:52.495Z,22.60
2023-02-14T00:42:27.242Z,21.40
2023-02-14T00:44:00.829Z,22.67
2023-02-14T00:45:34.281Z,22.67
2023-02-14T00:47:07.784Z,23.07
2023-02-14T00:48:41.184Z,22.37
2023-02-14T00:50:14.600Z,23.60
2023-02-14T00:51:48.026Z,23.43
2023-02-14T00:53:21.401Z,23.83
2023-02-14T00:54:54.798Z,25.03
2023-02-14T00:56:27.294Z,23.97
2023-02-14T00:58:02.030Z,23.50
2023-02-14T00:59:35.442Z,25.10
2023-02-14T01:01:12.350Z,24.93
2023-02-14T01:02:45.869Z,24.43
2023-02-14T01:04:20.617Z,23.23
2023-02-14T01:05:54.080Z,23.23
2023-02-14T01:07:27.485Z,23.47
2023-02-14T01:09:01.045Z,24.20
2023-02-14T01:10:34.439Z,23.27
2023-02-14T01:12:07.957Z,23.57
2023-02-14T01:13:42.019Z,23.30
2023-02-14T01:15:15.388Z,25.33
2023-02-14T01:16:50.873Z,24.80
2023-02-14T01:18:24.320Z,23.67
2023-02-14T01:19:57.794Z,23.57
2023-02-14T01:21:32.070Z,25.17
2023-02-14T01:23:05.548Z,23.50
2023-02-14T01:24:38.960Z,24.93
2023-02-14T01:26:11.375Z,24.60
2023-02-14T01:27:45.011Z,25.03
2023-02-14T01:29:21.454Z,24.90
2023-02-14T01:30:53.914Z,25.43
2023-02-14T01:32:27.281Z,24.20
2023-02-14T01:34:01.038Z,21.90
2023-02-14T01:35:39.319Z,22.70
2023-02-14T01:37:12.995Z,22.10
2023-02-14T01:38:47.147Z,23.63
2023-02-14T01:40:20.597Z,24.73
2023-02-14T01:41:55.868Z,23.40
2023-02-14T01:43:29.271Z,23.43
2023-02-14T01:45:06.334Z,22.77
2023-02-14T01:46:39.813Z,23.27
2023-02-14T01:48:12.298Z,23.70
2023-02-14T01:49:47.952Z,22.53
2023-02-14T01:51:21.830Z,22.33
2023-02-14T01:52:57.192Z,21.03
2023-02-14T01:54:31.272Z,22.07
2023-02-14T01:56:07.755Z,21.80
2023-02-14T01:57:42.777Z,22.73
2023-02-14T01:59:17.834Z,22.50
2023-02-14T02:00:58.226Z,22.57
2023-02-14T02:02:32.151Z,21.33
2023-02-14T02:04:09.092Z,22.50
2023-02-14T02:05:43.928Z,20.40
2023-02-14T02:07:20.598Z,22.33
2023-02-14T02:09:04.244Z,23.27
2023-02-14T02:10:37.651Z,22.40
2023-02-14T02:12:11.243Z,23.17
2023-02-14T02:13:44.663Z,21.47
2023-02-14T02:15:18.089Z,22.27
2023-02-14T02:16:57.369Z,22.17
2023-02-14T02:18:36.896Z,21.53
2023-02-14T02:20:28.655Z,21.73
2023-02-14T02:22:28.420Z,21.17
2023-02-14T02:24:19.163Z,22.87
2023-02-14T02:26:03.123Z,22.23
2023-02-14T02:27:38.956Z,22.00
2023-02-14T02:29:29.585Z,20.97
2023-02-14T02:31:17.900Z,20.13
2023-02-14T02:33:06.886Z,21.87
2023-02-14T02:34:58.174Z,22.00
2023-02-14T02:37:02.010Z,22.43
2023-02-14T02:38:45.407Z,20.37
2023-02-14T02:40:24.525Z,20.77
2023-02-14T02:42:03.403Z,20.50
2023-02-14T02:43:40.625Z,21.83
2023-02-14T02:45:15.872Z,21.50
2023-02-14T02:46:55.732Z,21.27
2023-02-14T02:48:33.861Z,21.57
2023-02-14T02:50:31.105Z,20.50
2023-02-14T02:52:22.837Z,20.23
2023-02-14T02:54:02.026Z,23.13
2023-02-14T02:55:59.971Z,23.13
2023-02-14T02:57:36.468Z,22.77
2023-02-14T02:59:18.408Z,21.90
2023-02-14T03:00:57.232Z,21.77
2023-02-14T03:02:32.067Z,23.17
2023-02-14T03:04:26.382Z,21.67
2023-02-14T03:05:59.836Z,22.77
2023-02-14T03:07:39.050Z,20.97
2023-02-14T03:09:41.506Z,20.60
2023-02-14T03:11:15.352Z,21.90
2023-02-14T03:13:07.976Z,22.30
2023-02-14T03:14:50.205Z,23.40
2023-02-14T03:16:33.070Z,21.00
2023-02-14T03:18:13.854Z,20.43
2023-02-14T03:20:16.056Z,21.67
2023-02-14T03:21:56.040Z,22.13
2023-02-14T03:23:33.298Z,21.33
2023-02-14T03:25:17.555Z,20.80
2023-02-14T03:26:52.735Z,22.03
2023-02-14T03:28:34.851Z,22.33
2023-02-14T03:30:14.151Z,21.97
2023-02-14T03:31:56.892Z,23.30
2023-02-14T03:33:36.961Z,22.90
2023-02-14T03:35:19.467Z,24.23
2023-02-14T03:36:58.006Z,22.83
2023-02-14T03:38:35.688Z,23.50
2023-02-14T03:40:14.873Z,22.23
2023-02-14T03:41:57.367Z,20.87
2023-02-14T03:43:34.874Z,22.47
2023-02-14T03:45:13.227Z,21.63
2023-02-14T03:46:48.970Z,22.67
2023-02-14T03:48:24.890Z,23.93
2023-02-14T03:50:01.228Z,23.33
2023-02-14T03:51:37.079Z,22.70
2023-02-14T03:53:12.138Z,21.37
2023-02-14T03:54:48.920Z,22.03
2023-02-14T03:56:31.142Z,20.63
2023-02-14T03:58:11.689Z,21.00
2023-02-14T03:59:44.226Z,21.40
2023-02-14T04:01:22.539Z,21.33
2023-02-14T04:03:00.062Z,21.80
2023-02-14T04:04:36.847Z,21.97
2023-02-14T04:06:10.706Z,22.40
2023-02-14T04:07:49.492Z,22.43
2023-02-14T04:09:22.575Z,23.87
2023-02-14T04:10:58.076Z,23.07
2023-02-14T04:12:38.046Z,23.83
2023-02-14T04:14:11.297Z,24.77
2023-02-14T04:15:44.449Z,24.97
2023-02-14T04:17:35.097Z,24.47
2023-02-14T04:19:23.558Z,25.27
2023-02-14T04:20:56.846Z,24.43
2023-02-14T04:22:29.909Z,23.20
2023-02-14T04:24:02.999Z,24.40
2023-02-14T04:25:36.093Z,23.17
2023-02-14T04:27:11.077Z,24.87
2023-02-14T04:28:45.686Z,23.47
2023-02-14T04:30:20.882Z,23.00
2023-02-14T04:31:54.105Z,23.23
2023-02-14T04:33:27.220Z,25.20
2023-02-14T04:34:59.280Z,24.73
2023-02-14T04:36:32.357Z,24.50
2023-02-14T04:38:06.166Z,23.47
2023-02-14T04:39:38.774Z,24.83
2023-02-14T04:41:11.827Z,22.43
2023-02-14T04:42:44.071Z,23.27
2023-02-14T04:44:18.642Z,23.00
2023-02-14T04:45:51.728Z,23.30
2023-02-14T04:47:24.806Z,22.47
2023-02-14T04:48:57.897Z,24.67
2023-02-14T04:50:31.336Z,24.67
2023-02-14T04:52:04.955Z,26.53
2023-02-14T04:53:40.308Z,23.57
2023-02-14T04:55:13.749Z,21.83
2023-02-14T04:56:47.129Z,23.70
2023-02-14T04:58:20.495Z,23.53
2023-02-14T04:59:54.187Z,23.33
2023-02-14T05:01:27.672Z,25.17
2023-02-14T05:03:01.023Z,25.27
2023-02-14T05:04:34.391Z,24.40
2023-02-14T05:06:07.872Z,24.23
2023-02-14T05:07:42.480Z,25.60
2023-02-14T05:09:15.853Z,24.03
2023-02-14T05:10:49.386Z,23.30
2023-02-14T05:12:22.782Z,24.57
2023-02-14T05:13:56.509Z,24.87
2023-02-14T05:15:31.243Z,23.50
2023-02-14T05:17:04.842Z,21.57
2023-02-14T05:18:38.239Z,21.97
2023-02-14T05:20:12.208Z,21.17
2023-02-14T05:21:45.579Z,21.07
2023-02-14T05:23:19.104Z,20.50
2023-02-14T05:24:52.479Z,23.87
2023-02-14T05:26:25.826Z,22.07
2023-02-14T05:27:59.427Z,21.27
2023-02-14T05:29:32.812Z,22.17
2023-02-14T05:31:07.651Z,21.37
2023-02-14T05:32:41.168Z,21.13
2023-02-14T05:34:14.709Z,22.73
2023-02-14T05:35:48.074Z,21.77
2023-02-14T05:37:21.440Z,23.00
2023-02-14T05:38:54.821Z,19.63
2023-02-14T05:40:29.085Z,18.10
2023-02-14T05:42:03.195Z,18.17
2023-02-14T05:43:36.599Z,19.90
2023-02-14T05:45:10.515Z,20.63
2023-02-14T05:46:45.262Z,20.03
2023-02-14T05:48:18.690Z,20.07
2023-02-14T05:49:52.257Z,19.90
2023-02-14T05:51:25.649Z,19.37
2023-02-14T05:52:59.055Z,18.70
2023-02-14T05:54:32.435Z,19.23
2023-02-14T05:56:06.191Z,19.17
2023-02-14T05:57:39.621Z,20.67
2023-02-14T05:59:14.199Z,19.67
2023-02-14T06:00:47.572Z,18.57
2023-02-14T06:02:22.326Z,17.67
2023-02-14T06:03:55.695Z,19.37
2023-02-14T06:05:29.091Z,19.70
2023-02-14T06:07:02.463Z,19.33
2023-02-14T06:08:35.852Z,20.33
2023-02-14T06:10:10.426Z,19.77
2023-02-14T06:11:43.837Z,19.70
2023-02-14T06:13:17.224Z,19.73
2023-02-14T06:14:50.644Z,19.20
2023-02-14T06:16:24.025Z,20.83
2023-02-14T06:17:59.506Z,24.20
2023-02-14T06:19:32.933Z,23.23
2023-02-14T06:21:06.479Z,21.53
2023-02-14T06:22:40.162Z,21.73
2023-02-14T06:24:13.766Z,20.83
2023-02-14T06:25:47.106Z,20.40
2023-02-14T06:27:20.529Z,19.87
2023-02-14T06:28:54.717Z,22.47
2023-02-14T06:30:28.661Z,23.60
2023-02-14T06:32:05.942Z,23.17
2023-02-14T06:33:40.880Z,23.20
2023-02-14T06:35:14.561Z,21.87
2023-02-14T06:36:47.925Z,20.97
2023-02-14T06:38:22.391Z,22.10
2023-02-14T06:39:55.768Z,23.83
2023-02-14T06:41:29.343Z,22.77
2023-02-14T06:43:02.755Z,23.53
2023-02-14T06:44:35.132Z,23.03
2023-02-14T06:46:08.638Z,23.57
2023-02-14T06:47:42.075Z,22.77
2023-02-14T06:49:16.931Z,21.43
2023-02-14T06:50:50.285Z,21.23
2023-02-14T06:52:23.689Z,20.30
2023-02-14T06:53:57.058Z,19.10
2023-02-14T06:55:30.456Z,19.43
2023-02-14T06:57:04.134Z,17.90
2023-02-14T06:58:37.772Z,15.93
2023-02-14T07:00:12.307Z,16.53
2023-02-14T07:01:46.030Z,17.07
2023-02-14T07:03:19.735Z,17.97
2023-02-14T07:04:54.875Z,18.23
2023-02-14T07:06:28.584Z,18.83
2023-02-14T07:08:02.376Z,19.43
2023-02-14T07:09:36.044Z,19.73
2023-02-14T07:11:09.882Z,20.33
2023-02-14T07:12:43.639Z,19.47
2023-02-14T07:14:17.334Z,19.37
2023-02-14T07:15:51.032Z,16.63
2023-02-14T07:17:24.687Z,17.47
2023-02-14T07:18:58.456Z,18.63
2023-02-14T07:20:33.469Z,21.37
2023-02-14T07:22:07.161Z,20.70
2023-02-14T07:23:41.434Z,22.57
2023-02-14T07:25:15.569Z,20.87
2023-02-14T07:26:48.707Z,19.57
2023-02-14T07:28:21.851Z,18.40
2023-02-14T07:29:55.675Z,20.27
2023-02-14T07:31:29.551Z,18.37
2023-02-14T07:33:03.365Z,17.83
2023-02-14T07:34:37.158Z,18.00
2023-02-14T07:36:12.517Z,17.27
2023-02-14T07:37:46.239Z,17.87
2023-02-14T07:39:19.953Z,17.03
2023-02-14T07:40:55.460Z,17.93
2023-02-14T07:42:29.159Z,18.93
2023-02-14T07:44:02.875Z,16.90
2023-02-14T07:45:36.581Z,17.93
2023-02-14T07:47:10.795Z,19.30
2023-02-14T07:48:44.373Z,19.47
2023-02-14T07:50:18.138Z,17.73
2023-02-14T07:51:53.061Z,16.70
2023-02-14T07:53:27.087Z,18.53
2023-02-14T07:55:00.688Z,17.07
2023-02-14T07:56:34.275Z,16.53
2023-02-14T07:58:07.848Z,16.87
2023-02-14T07:59:41.316Z,17.37
2023-02-14T08:01:14.795Z,16.60
2023-02-14T08:02:49.452Z,18.30
2023-02-14T08:04:25.991Z,19.13
2023-02-14T08:05:59.757Z,16.80
2023-02-14T08:07:34.757Z,17.57
2023-02-14T08:09:10.018Z,16.47
2023-02-14T08:10:43.550Z,16.33
2023-02-14T08:12:34.975Z,17.37
2023-02-14T08:14:09.024Z,16.83
2023-02-14T08:16:00.332Z,18.13
2023-02-14T08:17:35.793Z,17.97
2023-02-14T08:19:10.347Z,18.23
2023-02-14T08:20:43.992Z,15.67
2023-02-14T08:22:19.265Z,17.17
2023-02-14T08:23:54.249Z,15.73
2023-02-14T08:25:27.820Z,17.07
2023-02-14T08:27:01.390Z,15.00
2023-02-14T08:28:35.289Z,14.60
2023-02-14T08:30:09.736Z,16.67
2023-02-14T08:31:43.388Z,16.57
2023-02-14T08:33:16.982Z,14.60
2023-02-14T08:34:50.504Z,14.67
2023-02-14T08:36:24.130Z,15.70
2023-02-14T08:37:57.593Z,14.03
2023-02-14T08:39:33.006Z,15.20
2023-02-14T08:41:08.876Z,16.87
2023-02-14T08:42:42.974Z,16.33
2023-02-14T08:44:16.829Z,14.37
2023-02-14T08:45:54.111Z,12.67
2023-02-14T08:47:27.920Z,11.60
2023-02-14T08:49:00.999Z,11.17
2023-02-14T08:50:34.851Z,12.07
2023-02-14T08:52:08.027Z,12.37
2023-02-14T08:53:41.828Z,12.30
2023-02-14T08:55:16.855Z,11.10
2023-02-14T08:56:50.495Z,10.10
2023-02-14T08:58:24.240Z,10.63
2023-02-14T08:59:58.068Z,10.53
2023-02-14T09:01:31.927Z,12.00
2023-02-14T09:03:05.779Z,11.63
2023-02-14T09:04:39.567Z,15.57
2023-02-14T09:06:14.538Z,17.73
2023-02-14T09:07:48.266Z,17.03
2023-02-14T09:09:21.874Z,16.17
2023-02-14T09:10:57.047Z,15.03
2023-02-14T09:12:30.862Z,16.93
2023-02-14T09:14:04.409Z,17.23
2023-02-14T09:15:38.116Z,17.87
2023-02-14T09:17:12.018Z,15.93
2023-02-14T09:18:46.166Z,16.40
2023-02-14T09:20:19.986Z,15.83
2023-02-14T09:21:53.794Z,11.20
2023-02-14T09:23:27.676Z,11.47
2023-02-14T09:25:01.297Z,12.13
2023-02-14T09:26:40.797Z,12.20
2023-02-14T09:28:14.319Z,12.43
2023-02-14T09:29:48.066Z,13.37
2023-02-14T09:31:22.525Z,13.57
2023-02-14T09:32:56.224Z,15.40
2023-02-14T09:34:30.535Z,15.53
2023-02-14T09:36:22.047Z,15.67
2023-02-14T09:37:56.110Z,14.30
2023-02-14T09:39:29.929Z,16.57
2023-02-14T09:41:07.925Z,16.27
2023-02-14T09:42:48.035Z,16.53
2023-02-14T09:44:26.051Z,15.17
2023-02-14T09:46:02.435Z,15.17
2023-02-14T09:47:38.873Z,15.10
2023-02-14T09:49:15.891Z,15.60
2023-02-14T09:50:51.560Z,16.00
2023-02-14T09:52:28.680Z,12.47
2023-02-14T09:54:04.643Z,14.53
2023-02-14T09:55:42.257Z,13.43
2023-02-14T09:57:21.243Z,13.43
2023-02-14T09:59:02.365Z,14.30
2023-02-14T10:00:39.203Z,14.63
2023-02-14T10:02:20.977Z,14.97
2023-02-14T10:04:09.822Z,16.80
2023-02-14T10:05:47.599Z,15.27
2023-02-14T10:07:26.825Z,15.30
2023-02-14T10:09:05.283Z,14.90
2023-02-14T10:10:41.267Z,14.70
2023-02-14T10:12:18.926Z,14.47
2023-02-14T10:13:55.263Z,13.87
2023-02-14T10:15:32.926Z,14.53
2023-02-14T10:17:10.249Z,16.63
2023-02-14T10:18:47.713Z,15.60
2023-02-14T10:20:24.553Z,15.50
2023-02-14T10:22:00.779Z,15.73
2023-02-14T10:23:37.813Z,15.23
2023-02-14T10:25:16.648Z,15.23
2023-02-14T10:26:52.010Z,16.40
2023-02-14T10:28:30.309Z,15.43
2023-02-14T10:30:04.910Z,14.27
2023-02-14T10:31:44.333Z,15.30
2023-02-14T10:33:19.538Z,14.80
2023-02-14T10:34:54.524Z,13.50
2023-02-14T10:36:46.382Z,14.07
2023-02-14T10:38:30.545Z,13.67
2023-02-14T10:40:10.474Z,14.00
2023-02-14T10:41:49.265Z,14.10
2023-02-14T10:43:27.766Z,13.23
2023-02-14T10:45:09.376Z,14.40
2023-02-14T10:46:49.615Z,14.20
2023-02-14T10:48:29.188Z,14.47
2023-02-14T10:50:09.264Z,13.93
2023-02-14T10:51:46.546Z,13.60
2023-02-14T10:53:22.878Z,13.57
2023-02-14T10:54:58.118Z,14.03
2023-02-14T10:56:34.938Z,14.10
2023-02-14T10:58:09.786Z,12.40
2023-02-14T10:59:48.450Z,13.07
2023-02-14T11:01:22.624Z,12.17
2023-02-14T11:02:59.656Z,12.53
2023-02-14T11:04:34.265Z,12.40
2023-02-14T11:06:08.719Z,12.40
2023-02-14T11:07:42.888Z,12.07
2023-02-14T11:09:16.071Z,11.70
2023-02-14T11:10:49.540Z,12.77
2023-02-14T11:12:40.551Z,11.83
2023-02-14T11:14:30.181Z,12.07
2023-02-14T11:16:06.135Z,11.93
2023-02-14T11:17:39.280Z,11.60
2023-02-14T11:19:23.452Z,12.80
2023-02-14T11:21:12.082Z,12.20
2023-02-14T11:22:45.170Z,13.33
2023-02-14T11:24:20.550Z,12.30
2023-02-14T11:25:56.807Z,11.60
2023-02-14T11:27:29.909Z,10.83
2023-02-14T11:29:12.017Z,11.13
2023-02-14T11:30:47.743Z,11.23
2023-02-14T11:32:23.794Z,11.57
2023-02-14T11:33:57.177Z,11.83
2023-02-14T11:35:34.752Z,11.87
2023-02-14T11:37:26.149Z,12.33
2023-02-14T11:39:06.359Z,11.10
2023-02-14T11:40:40.996Z,11.20
2023-02-14T11:42:14.644Z,11.13
2023-02-14T11:43:49.225Z,11.33
2023-02-14T11:45:31.252Z,10.13
2023-02-14T11:47:21.425Z,11.63
2023-02-14T11:48:59.900Z,11.57
2023-02-14T11:50:34.394Z,12.63
2023-02-14T11:52:11.938Z,12.13
2023-02-14T11:53:48.531Z,12.53
2023-02-14T11:55:28.142Z,12.33
2023-02-14T11:57:09.719Z,12.07
2023-02-14T11:58:49.056Z,12.53
2023-02-14T12:00:23.599Z,12.67
2023-02-14T12:01:58.990Z,12.23
2023-02-14T12:03:37.099Z,12.77
2023-02-14T12:05:20.716Z,11.80
2023-02-14T12:06:55.744Z,12.33
2023-02-14T12:08:31.574Z,13.10
2023-02-14T12:10:24.974Z,13.13
2023-02-14T12:12:00.056Z,11.67
2023-02-14T12:13:33.914Z,11.97
2023-02-14T12:15:36.638Z,11.77
2023-02-14T12:17:20.407Z,13.20
2023-02-14T12:18:57.365Z,12.73
2023-02-14T12:20:36.936Z,13.37
2023-02-14T12:22:15.034Z,12.83
2023-02-14T12:23:59.764Z,12.83
2023-02-14T12:25:41.328Z,12.67
2023-02-14T12:27:21.304Z,12.07
2023-02-14T12:29:03.890Z,12.73
2023-02-14T12:30:37.357Z,12.17
2023-02-14T12:32:20.713Z,13.13
2023-02-14T12:33:53.934Z,13.43
2023-02-14T12:35:42.539Z,13.57
2023-02-14T12:37:24.697Z,13.93
2023-02-14T12:39:10.071Z,12.83
2023-02-14T12:40:52.972Z,12.80
2023-02-14T12:42:42.187Z,12.50
2023-02-14T12:44:26.215Z,13.50
2023-02-14T12:46:20.199Z,12.47
2023-02-14T12:48:06.821Z,11.83
2023-02-14T12:50:02.677Z,10.57
2023-02-14T12:51:43.897Z,10.57
2023-02-14T12:53:34.849Z,9.87
2023-02-14T12:55:35.754Z,10.90
2023-02-14T12:57:24.317Z,10.40
2023-02-14T12:59:08.911Z,11.57
2023-02-14T13:00:54.638Z,11.57
2023-02-14T13:02:50.383Z,10.90
2023-02-14T13:04:56.192Z,10.97
2023-02-14T13:06:31.659Z,10.80
2023-02-14T13:08:16.478Z,10.77
2023-02-14T13:09:59.254Z,10.00
2023-02-14T13:11:40.363Z,8.90
2023-02-14T13:13:24.168Z,8.40
2023-02-14T13:15:07.731Z,8.47
2023-02-14T13:16:47.910Z,8.37
2023-02-14T13:18:40.597Z,9.00
2023-02-14T13:20:41.244Z,8.20
2023-02-14T13:22:19.079Z,8.63
2023-02-14T13:23:58.875Z,9.43
2023-02-14T13:25:40.870Z,10.10
2023-02-14T13:27:21.330Z,9.93
2023-02-14T13:29:02.209Z,11.70
2023-02-14T13:30:38.556Z,12.80
2023-02-14T13:32:16.308Z,12.77
2023-02-14T13:33:53.195Z,13.67
2023-02-14T13:35:29.142Z,13.10
2023-02-14T13:37:07.490Z,13.07
2023-02-14T13:38:44.849Z,13.63
2023-02-14T13:40:19.258Z,13.63
2023-02-14T13:41:53.711Z,14.90
2023-02-14T13:43:47.572Z,15.07
2023-02-14T13:45:51.984Z,13.93
2023-02-14T13:47:27.211Z,15.37
2023-02-14T13:49:02.682Z,15.20
2023-02-14T13:50:39.173Z,16.70
2023-02-14T13:52:12.361Z,15.57
2023-02-14T13:53:47.528Z,17.40
2023-02-14T13:55:24.204Z,16.40
2023-02-14T13:56:59.078Z,16.43
2023-02-14T13:58:32.802Z,18.53
2023-02-14T14:00:37.685Z,17.07
2023-02-14T14:02:33.751Z,16.80
2023-02-14T14:04:27.876Z,18.27
2023-02-14T14:06:08.576Z,18.43
2023-02-14T14:07:41.696Z,17.83
2023-02-14T14:09:54.037Z,16.60
2023-02-14T14:12:01.767Z,17.77
2023-02-14T14:13:57.542Z,16.90
2023-02-14T14:15:30.847Z,16.60
2023-02-14T14:17:20.510Z,17.33
2023-02-14T14:18:56.484Z,16.53
2023-02-14T14:20:48.941Z,18.83
2023-02-14T14:22:22.591Z,18.83
2023-02-14T14:24:22.753Z,18.80
2023-02-14T14:25:56.041Z,18.97
2023-02-14T14:27:35.874Z,18.70
2023-02-14T14:29:17.387Z,18.53
2023-02-14T14:30:50.699Z,19.83
2023-02-14T14:32:28.179Z,21.30
2023-02-14T14:34:04.102Z,20.10
2023-02-14T14:35:37.277Z,21.20
2023-02-14T14:37:18.908Z,20.77
2023-02-14T14:38:54.135Z,19.80
2023-02-14T14:40:30.436Z,20.37
2023-02-14T14:42:07.972Z,21.10
2023-02-14T14:43:43.115Z,20.37
2023-02-14T14:45:23.822Z,19.87
2023-02-14T14:47:00.405Z,19.50
2023-02-14T14:48:38.421Z,18.47
2023-02-14T14:50:18.899Z,19.50
2023-02-14T14:51:52.059Z,19.30
2023-02-14T14:53:29.954Z,20.07
2023-02-14T14:55:05.114Z,20.20
2023-02-14T14:56:39.775Z,19.77
2023-02-14T14:58:30.419Z,20.37
2023-02-14T15:00:20.515Z,20.70
2023-02-14T15:01:54.430Z,20.00
2023-02-14T15:03:30.197Z,21.70
2023-02-14T15:05:18.490Z,19.93
2023-02-14T15:06:52.001Z,20.87
2023-02-14T15:08:34.434Z,19.67
2023-02-14T15:10:23.204Z,20.27
2023-02-14T15:12:15.641Z,18.73
2023-02-14T15:13:53.743Z,19.60
2023-02-14T15:15:28.360Z,19.93
2023-02-14T15:17:02.917Z,20.20
2023-02-14T15:18:36.156Z,18.67
2023-02-14T15:20:15.544Z,20.10
2023-02-14T15:21:48.668Z,20.00
2023-02-14T15:23:24.092Z,21.50
2023-02-14T15:24:59.027Z,22.50
2023-02-14T15:26:35.033Z,21.00
2023-02-14T15:28:08.156Z,22.10
2023-02-14T15:29:41.278Z,22.57
2023-02-14T15:31:15.901Z,23.10
2023-02-14T15:32:51.612Z,23.90
2023-02-14T15:34:28.653Z,24.20
2023-02-14T15:36:04.568Z,24.73
2023-02-14T15:37:38.997Z,23.13
2023-02-14T15:39:16.369Z,24.40
2023-02-14T15:40:50.231Z,24.27
2023-02-14T15:42:25.894Z,25.03
2023-02-14T15:44:00.124Z,24.83
2023-02-14T15:45:34.187Z,27.70
2023-02-14T15:47:09.280Z,25.67
2023-02-14T15:48:43.071Z,27.13
2023-02-14T15:50:17.881Z,26.40
2023-02-14T15:51:53.126Z,26.67
2023-02-14T15:53:33.094Z,27.00
2023-02-14T15:55:10.358Z,26.97
2023-02-14T15:56:46.697Z,26.67
2023-02-14T15:58:22.776Z,24.90
2023-02-14T15:59:56.517Z,26.33
2023-02-14T16:01:30.883Z,26.57
2023-02-14T16:03:07.987Z,25.97
2023-02-14T16:04:41.547Z,26.13
2023-02-14T16:06:18.037Z,24.80
2023-02-14T16:08:03.535Z,25.20
2023-02-14T16:09:37.811Z,25.33
2023-02-14T16:11:15.800Z,27.30
2023-02-14T16:12:57.495Z,26.37
2023-02-14T16:14:35.086Z,27.27
2023-02-14T16:16:09.538Z,27.57
2023-02-14T16:17:44.074Z,28.37
2023-02-14T16:19:32.616Z,27.80
2023-02-14T16:21:14.789Z,26.23
2023-02-14T16:22:48.451Z,28.13
2023-02-14T16:24:22.125Z,26.57
2023-02-14T16:25:57.362Z,26.80
2023-02-14T16:27:31.332Z,27.67
2023-02-14T16:29:05.667Z,26.70
2023-02-14T16:30:40.247Z,28.10
2023-02-14T16:32:16.965Z,26.63
2023-02-14T16:33:50.846Z,27.90
2023-02-14T16:35:24.382Z,29.93
2023-02-14T16:36:59.135Z,28.13
2023-02-14T16:38:34.972Z,30.10
2023-02-14T16:40:14.269Z,29.40
2023-02-14T16:41:48.771Z,29.23
2023-02-14T16:43:22.525Z,29.57
2023-02-14T16:44:55.909Z,31.40
2023-02-14T16:46:31.536Z,30.67
2023-02-14T16:48:04.959Z,30.17
2023-02-14T16:49:38.315Z,32.07
2023-02-14T16:51:14.437Z,30.53
2023-02-14T16:52:52.566Z,32.07
2023-02-14T16:54:28.230Z,31.27
2023-02-14T16:56:01.664Z,56.23
2023-02-14T16:57:37.236Z,53.80
2023-02-14T16:59:10.752Z,204.00
2023-02-14T17:00:44.202Z,68.90
2023-02-14T17:02:19.041Z,63.67
2023-02-14T17:03:52.547Z,57.63
2023-02-14T17:05:28.113Z,36.60
2023-02-14T17:07:05.790Z,50.90
2023-02-14T17:08:41.129Z,44.73
2023-02-14T17:10:16.864Z,34.97
2023-02-14T17:11:51.595Z,34.37
2023-02-14T17:13:27.098Z,34.27
2023-02-14T17:15:02.559Z,32.67
2023-02-14T17:16:36.222Z,33.77
2023-02-14T17:18:11.551Z,32.67
2023-02-14T17:19:45.431Z,32.53
2023-02-14T17:21:21.532Z,33.90
2023-02-14T17:22:55.514Z,32.13
2023-02-14T17:24:30.255Z,33.90
2023-02-14T17:26:03.845Z,33.43
2023-02-14T17:27:37.560Z,32.50
2023-02-14T17:29:10.960Z,32.30
2023-02-14T17:30:44.456Z,32.27
2023-02-14T17:32:18.035Z,32.13
2023-02-14T17:33:51.670Z,32.00
2023-02-14T17:35:25.087Z,34.07
2023-02-14T17:36:58.740Z,35.17
2023-02-14T17:38:32.099Z,34.53
2023-02-14T17:40:07.641Z,35.77
2023-02-14T17:41:41.217Z,34.73
2023-02-14T17:43:14.650Z,35.07
2023-02-14T17:44:48.014Z,33.55
2023-02-14T17:46:21.430Z,34.10
2023-02-14T17:47:54.800Z,33.67
2023-02-14T17:49:28.279Z,34.10
2023-02-14T17:51:04.719Z,33.73
2023-02-14T17:52:38.115Z,34.22
2023-02-14T17:54:12.210Z,34.20
2023-02-14T17:55:46.946Z,34.53
2023-02-14T17:57:20.803Z,35.03
2023-02-14T17:58:55.164Z,35.00
2023-02-14T18:00:28.526Z,35.50
2023-02-14T18:02:02.067Z,35.73
2023-02-14T18:03:35.727Z,35.80
2023-02-14T18:05:09.423Z,34.80
2023-02-14T18:06:43.143Z,34.93
2023-02-14T18:08:16.191Z,35.33
2023-02-14T18:09:49.249Z,37.37
2023-02-14T18:11:25.791Z,35.72
2023-02-14T18:12:58.834Z,35.10
2023-02-14T18:14:32.253Z,35.20
2023-02-14T18:16:07.034Z,35.50
2023-02-14T18:17:40.124Z,34.13
2023-02-14T18:19:15.778Z,36.45
2023-02-14T18:20:54.215Z,36.85
2023-02-14T18:22:28.382Z,35.27
2023-02-14T18:24:01.491Z,36.03
2023-02-14T18:25:34.577Z,36.53
2023-02-14T18:27:09.024Z,37.33
2023-02-14T18:28:41.330Z,38.05
2023-02-14T18:30:15.289Z,35.67
2023-02-14T18:31:48.537Z,37.75
2023-02-14T18:33:23.739Z,39.22
2023-02-14T18:34:58.278Z,38.97
2023-02-14T18:36:32.869Z,39.17
2023-02-14T18:38:07.269Z,40.60
2023-02-14T18:39:40.525Z,39.45
2023-02-14T18:41:15.287Z,39.95
2023-02-14T18:42:49.731Z,39.17
2023-02-14T18:44:23.459Z,40.42
2023-02-14T18:45:56.565Z,41.08
2023-02-14T18:47:29.738Z,41.28
2023-02-14T18:49:05.926Z,41.20
2023-02-14T18:50:39.112Z,41.07
2023-02-14T18:52:12.275Z,41.07
2023-02-14T18:53:47.124Z,39.77
2023-02-14T18:55:20.181Z,42.10
2023-02-14T18:56:53.348Z,42.75
2023-02-14T18:58:27.846Z,41.67
2023-02-14T19:00:06.506Z,39.95
2023-02-14T19:01:42.512Z,40.22
2023-02-14T19:03:15.693Z,42.17
2023-02-14T19:04:49.025Z,41.23
2023-02-14T19:06:22.970Z,41.42
2023-02-14T19:07:58.197Z,40.50
2023-02-14T19:09:38.860Z,41.37
2023-02-14T19:11:12.892Z,42.15
2023-02-14T19:12:46.096Z,41.10
2023-02-14T19:14:20.723Z,40.80
2023-02-14T19:15:53.397Z,40.67
2023-02-14T19:17:26.671Z,42.03
2023-02-14T19:19:02.288Z,42.72
2023-02-14T19:20:35.421Z,52.30
2023-02-14T19:22:08.500Z,44.33
2023-02-14T19:23:42.022Z,43.22
2023-02-14T19:25:15.400Z,43.25
2023-02-14T19:26:49.372Z,55.75
2023-02-14T19:28:22.864Z,44.45
2023-02-14T19:29:57.650Z,42.58
2023-02-14T19:31:31.452Z,41.05
2023-02-14T19:33:05.074Z,41.65
2023-02-14T19:34:39.019Z,41.67
2023-02-14T19:36:13.234Z,42.45
2023-02-14T19:37:46.621Z,43.22
2023-02-14T19:39:20.415Z,41.97
2023-02-14T19:40:53.877Z,41.97
2023-02-14T19:42:27.671Z,42.85
2023-02-14T19:44:01.595Z,43.72
2023-02-14T19:45:36.427Z,41.83
2023-02-14T19:47:26.862Z,42.55
2023-02-14T19:49:02.534Z,52.40
2023-02-14T19:50:35.982Z,50.28
2023-02-14T19:52:25.702Z,48.40
2023-02-14T19:54:01.606Z,46.20
2023-02-14T19:55:35.181Z,44.00
2023-02-14T19:57:08.630Z,43.22
2023-02-14T19:58:42.248Z,42.00
2023-02-14T20:00:16.626Z,42.17
2023-02-14T20:01:53.142Z,43.03
2023-02-14T20:03:26.656Z,42.75
2023-02-14T20:05:04.335Z,40.83
2023-02-14T20:06:38.177Z,42.58
2023-02-14T20:08:11.992Z,41.55
2023-02-14T20:09:45.389Z,40.67
2023-02-14T20:11:24.382Z,41.75
2023-02-14T20:12:57.905Z,40.40
2023-02-14T20:14:40.792Z,40.58
2023-02-14T20:16:20.549Z,40.78
2023-02-14T20:17:55.286Z,42.03
2023-02-14T20:19:29.907Z,42.42
2023-02-14T20:21:03.393Z,42.38
2023-02-14T20:22:37.011Z,40.97
2023-02-14T20:24:11.471Z,41.17
2023-02-14T20:25:44.860Z,40.55
2023-02-14T20:27:18.447Z,40.25
2023-02-14T20:28:53.131Z,39.72
2023-02-14T20:30:26.552Z,40.63
2023-02-14T20:32:03.448Z,39.38
2023-02-14T20:33:38.298Z,39.30
2023-02-14T20:35:11.693Z,39.92
2023-02-14T20:36:45.841Z,38.75
2023-02-14T20:38:19.239Z,37.88
2023-02-14T20:39:52.741Z,39.78
2023-02-14T20:41:27.615Z,39.42
2023-02-14T20:43:00.995Z,38.72
2023-02-14T20:44:34.373Z,38.20
2023-02-14T20:46:08.613Z,38.28
2023-02-14T20:47:42.043Z,36.67